sensor_id;sensor_type;location;lat;lon;timestamp;temperature;humidity
21216;DHT22;10765;50.954;5.322;2023-06-14T00:01:14;18.40;99.90
21216;DHT22;10765;50.954;5.322;2023-06-14T00:03:41;18.40;99.90
21216;DHT22;10765;50.954;5.322;2023-06-14T00:06:08;18.30;99.90
21216;DHT22;10765;50.954;5.322;2023-06-14T00:08:35;18.30;99.90
21216;DHT22;10765;50.954;5.322;2023-06-14T00:11:01;18.30;99.90
21216;DHT22;10765;50.954;5.322;2023-06-14T00:13:28;18.20;99.90
21216;DHT22;10765;50.954;5.322;2023-06-14T00:15:57;18.20;99.90
21216;DHT22;10765;50.954;5.322;2023-06-14T00:18:23;18.10;99.90
21216;DHT22;10765;50.954;5.322;2023-06-14T00:20:52;18.10;99.90
21216;DHT22;10765;50.954;5.322;2023-06-14T00:23:19;18.10;99.90
21216;DHT22;10765;50.954;5.322;2023-06-14T00:25:46;18.10;99.90
21216;DHT22;10765;50.954;5.322;2023-06-14T00:28:13;18.00;99.90
21216;DHT22;10765;50.954;5.322;2023-06-14T00:30:40;17.90;99.90
21216;DHT22;10765;50.954;5.322;2023-06-14T00:33:08;17.90;99.90
21216;DHT22;10765;50.954;5.322;2023-06-14T00:35:35;17.80;99.90
21216;DHT22;10765;50.954;5.322;2023-06-14T00:38:02;17.80;99.90
21216;DHT22;10765;50.954;5.322;2023-06-14T00:40:29;17.70;99.90
21216;DHT22;10765;50.954;5.322;2023-06-14T00:42:56;17.70;99.90
21216;DHT22;10765;50.954;5.322;2023-06-14T00:45:23;17.70;99.90
21216;DHT22;10765;50.954;5.322;2023-06-14T00:47:50;17.60;99.90
21216;DHT22;10765;50.954;5.322;2023-06-14T00:50:20;17.60;99.90
21216;DHT22;10765;50.954;5.322;2023-06-14T00:52:49;17.50;99.90
21216;DHT22;10765;50.954;5.322;2023-06-14T00:55:16;17.50;99.90
21216;DHT22;10765;50.954;5.322;2023-06-14T00:57:43;17.40;99.90
21216;DHT22;10765;50.954;5.322;2023-06-14T01:00:12;17.40;99.90
21216;DHT22;10765;50.954;5.322;2023-06-14T01:02:40;17.40;99.90
21216;DHT22;10765;50.954;5.322;2023-06-14T01:05:08;17.30;99.90
21216;DHT22;10765;50.954;5.322;2023-06-14T01:07:51;17.30;99.90
21216;DHT22;10765;50.954;5.322;2023-06-14T01:10:30;17.20;99.90
21216;DHT22;10765;50.954;5.322;2023-06-14T01:13:05;17.30;99.90
21216;DHT22;10765;50.954;5.322;2023-06-14T01:15:34;17.20;99.90
21216;DHT22;10765;50.954;5.322;2023-06-14T01:18:03;17.10;99.90
21216;DHT22;10765;50.954;5.322;2023-06-14T01:20:33;17.10;99.90
21216;DHT22;10765;50.954;5.322;2023-06-14T01:23:03;17.10;99.90
21216;DHT22;10765;50.954;5.322;2023-06-14T01:25:30;17.20;99.90
21216;DHT22;10765;50.954;5.322;2023-06-14T01:27:59;17.20;99.90
21216;DHT22;10765;50.954;5.322;2023-06-14T01:30:27;17.20;99.90
21216;DHT22;10765;50.954;5.322;2023-06-14T01:32:56;17.20;99.90
21216;DHT22;10765;50.954;5.322;2023-06-14T01:35:24;17.10;99.90
21216;DHT22;10765;50.954;5.322;2023-06-14T01:37:51;17.10;99.90
21216;DHT22;10765;50.954;5.322;2023-06-14T01:40:21;17.10;99.90
21216;DHT22;10765;50.954;5.322;2023-06-14T01:42:49;17.10;99.90
21216;DHT22;10765;50.954;5.322;2023-06-14T01:45:17;17.10;99.90
21216;DHT22;10765;50.954;5.322;2023-06-14T01:47:45;17.00;99.90
21216;DHT22;10765;50.954;5.322;2023-06-14T01:50:13;17.00;99.90
21216;DHT22;10765;50.954;5.322;2023-06-14T01:52:40;17.00;99.90
21216;DHT22;10765;50.954;5.322;2023-06-14T01:55:07;17.00;99.90
21216;DHT22;10765;50.954;5.322;2023-06-14T01:57:36;17.00;99.90
21216;DHT22;10765;50.954;5.322;2023-06-14T02:00:03;17.00;99.90
21216;DHT22;10765;50.954;5.322;2023-06-14T02:02:33;17.00;99.90
21216;DHT22;10765;50.954;5.322;2023-06-14T02:05:01;16.90;99.90
21216;DHT22;10765;50.954;5.322;2023-06-14T02:07:27;16.80;99.90
21216;DHT22;10765;50.954;5.322;2023-06-14T02:09:54;16.80;99.90
21216;DHT22;10765;50.954;5.322;2023-06-14T02:12:21;16.80;99.90
21216;DHT22;10765;50.954;5.322;2023-06-14T02:14:50;16.70;99.90
21216;DHT22;10765;50.954;5.322;2023-06-14T02:17:16;16.70;99.90
21216;DHT22;10765;50.954;5.322;2023-06-14T02:19:43;16.70;99.90
21216;DHT22;10765;50.954;5.322;2023-06-14T02:22:10;16.60;99.90
21216;DHT22;10765;50.954;5.322;2023-06-14T02:24:37;16.60;99.90
21216;DHT22;10765;50.954;5.322;2023-06-14T02:27:05;16.60;99.90
21216;DHT22;10765;50.954;5.322;2023-06-14T02:29:32;16.60;99.90
21216;DHT22;10765;50.954;5.322;2023-06-14T02:32:00;16.60;99.90
21216;DHT22;10765;50.954;5.322;2023-06-14T02:34:27;16.60;99.90
21216;DHT22;10765;50.954;5.322;2023-06-14T02:36:54;16.50;99.90
21216;DHT22;10765;50.954;5.322;2023-06-14T02:39:21;16.40;99.90
21216;DHT22;10765;50.954;5.322;2023-06-14T02:41:48;16.50;99.90
21216;DHT22;10765;50.954;5.322;2023-06-14T02:44:18;16.40;99.90
21216;DHT22;10765;50.954;5.322;2023-06-14T02:46:45;16.50;99.90
21216;DHT22;10765;50.954;5.322;2023-06-14T02:49:13;16.50;99.90
21216;DHT22;10765;50.954;5.322;2023-06-14T02:51:40;16.40;99.90
21216;DHT22;10765;50.954;5.322;2023-06-14T02:54:07;16.40;99.90
21216;DHT22;10765;50.954;5.322;2023-06-14T02:56:34;16.40;99.90
21216;DHT22;10765;50.954;5.322;2023-06-14T02:59:01;16.40;99.90
21216;DHT22;10765;50.954;5.322;2023-06-14T03:01:28;16.40;99.90
21216;DHT22;10765;50.954;5.322;2023-06-14T03:04:00;16.30;99.90
21216;DHT22;10765;50.954;5.322;2023-06-14T03:06:28;16.30;99.90
21216;DHT22;10765;50.954;5.322;2023-06-14T03:08:56;16.30;99.90
21216;DHT22;10765;50.954;5.322;2023-06-14T03:11:25;16.30;99.90
21216;DHT22;10765;50.954;5.322;2023-06-14T03:13:52;16.30;99.90
21216;DHT22;10765;50.954;5.322;2023-06-14T03:16:19;16.30;99.90
21216;DHT22;10765;50.954;5.322;2023-06-14T03:18:48;16.30;99.90
21216;DHT22;10765;50.954;5.322;2023-06-14T03:21:15;16.30;99.90
21216;DHT22;10765;50.954;5.322;2023-06-14T03:23:43;16.30;99.90
21216;DHT22;10765;50.954;5.322;2023-06-14T03:26:10;16.30;99.90
21216;DHT22;10765;50.954;5.322;2023-06-14T03:28:40;16.20;99.90
21216;DHT22;10765;50.954;5.322;2023-06-14T03:31:07;16.20;99.90
21216;DHT22;10765;50.954;5.322;2023-06-14T03:33:34;16.20;99.90
21216;DHT22;10765;50.954;5.322;2023-06-14T03:36:01;16.20;99.90
21216;DHT22;10765;50.954;5.322;2023-06-14T03:38:28;16.20;99.90
21216;DHT22;10765;50.954;5.322;2023-06-14T03:40:57;16.20;99.90
21216;DHT22;10765;50.954;5.322;2023-06-14T03:43:24;16.10;99.90
21216;DHT22;10765;50.954;5.322;2023-06-14T03:45:50;16.10;99.90
21216;DHT22;10765;50.954;5.322;2023-06-14T03:48:17;16.20;99.90
21216;DHT22;10765;50.954;5.322;2023-06-14T03:50:44;16.20;99.90
21216;DHT22;10765;50.954;5.322;2023-06-14T03:53:11;16.20;99.90
21216;DHT22;10765;50.954;5.322;2023-06-14T03:55:38;16.20;99.90
21216;DHT22;10765;50.954;5.322;2023-06-14T03:58:07;16.20;99.90
21216;DHT22;10765;50.954;5.322;2023-06-14T04:00:33;16.30;99.90
21216;DHT22;10765;50.954;5.322;2023-06-14T04:03:01;16.30;99.90
21216;DHT22;10765;50.954;5.322;2023-06-14T04:05:28;16.40;99.90
21216;DHT22;10765;50.954;5.322;2023-06-14T04:07:55;16.40;99.90
21216;DHT22;10765;50.954;5.322;2023-06-14T04:10:23;16.40;99.90
21216;DHT22;10765;50.954;5.322;2023-06-14T04:12:49;16.60;99.90
21216;DHT22;10765;50.954;5.322;2023-06-14T04:15:18;16.80;99.90
21216;DHT22;10765;50.954;5.322;2023-06-14T04:17:45;17.10;99.90
21216;DHT22;10765;50.954;5.322;2023-06-14T04:20:12;17.20;99.90
21216;DHT22;10765;50.954;5.322;2023-06-14T04:22:39;17.40;99.90
21216;DHT22;10765;50.954;5.322;2023-06-14T04:25:07;17.60;99.90
21216;DHT22;10765;50.954;5.322;2023-06-14T04:27:34;17.80;97.30
21216;DHT22;10765;50.954;5.322;2023-06-14T04:30:02;18.00;91.80
21216;DHT22;10765;50.954;5.322;2023-06-14T04:32:31;18.20;83.20
21216;DHT22;10765;50.954;5.322;2023-06-14T04:34:59;18.40;69.80
21216;DHT22;10765;50.954;5.322;2023-06-14T04:37:28;18.50;63.30
21216;DHT22;10765;50.954;5.322;2023-06-14T04:39:56;18.70;57.90
21216;DHT22;10765;50.954;5.322;2023-06-14T04:42:23;18.80;50.80
21216;DHT22;10765;50.954;5.322;2023-06-14T04:44:56;19.10;41.70
21216;DHT22;10765;50.954;5.322;2023-06-14T04:47:24;19.20;35.50
21216;DHT22;10765;50.954;5.322;2023-06-14T04:49:56;19.50;27.40
21216;DHT22;10765;50.954;5.322;2023-06-14T04:52:25;19.70;19.20
21216;DHT22;10765;50.954;5.322;2023-06-14T04:54:55;20.00;9.10
21216;DHT22;10765;50.954;5.322;2023-06-14T04:57:22;20.20;3.40
21216;DHT22;10765;50.954;5.322;2023-06-14T04:59:51;20.40;1.00
21216;DHT22;10765;50.954;5.322;2023-06-14T05:02:20;20.70;1.00
21216;DHT22;10765;50.954;5.322;2023-06-14T05:04:47;20.90;1.00
21216;DHT22;10765;50.954;5.322;2023-06-14T05:07:16;20.90;1.00
21216;DHT22;10765;50.954;5.322;2023-06-14T05:09:43;21.00;1.00
21216;DHT22;10765;50.954;5.322;2023-06-14T05:12:10;21.40;1.00
21216;DHT22;10765;50.954;5.322;2023-06-14T05:14:37;21.60;1.00
21216;DHT22;10765;50.954;5.322;2023-06-14T05:17:04;21.70;1.00
21216;DHT22;10765;50.954;5.322;2023-06-14T05:19:31;22.10;1.00
21216;DHT22;10765;50.954;5.322;2023-06-14T05:21:58;22.50;1.00
21216;DHT22;10765;50.954;5.322;2023-06-14T05:24:26;22.70;1.00
21216;DHT22;10765;50.954;5.322;2023-06-14T05:26:55;23.00;1.00
21216;DHT22;10765;50.954;5.322;2023-06-14T05:29:22;23.10;1.00
21216;DHT22;10765;50.954;5.322;2023-06-14T05:31:49;22.90;1.00
21216;DHT22;10765;50.954;5.322;2023-06-14T05:34:16;23.00;1.00
21216;DHT22;10765;50.954;5.322;2023-06-14T05:36:42;23.20;1.00
21216;DHT22;10765;50.954;5.322;2023-06-14T05:39:14;23.60;1.00
21216;DHT22;10765;50.954;5.322;2023-06-14T05:41:42;23.60;1.00
21216;DHT22;10765;50.954;5.322;2023-06-14T05:44:09;24.00;1.00
21216;DHT22;10765;50.954;5.322;2023-06-14T05:46:36;24.20;1.00
21216;DHT22;10765;50.954;5.322;2023-06-14T05:49:05;24.30;1.00
21216;DHT22;10765;50.954;5.322;2023-06-14T05:51:32;24.70;1.00
21216;DHT22;10765;50.954;5.322;2023-06-14T05:53:59;24.60;1.00
21216;DHT22;10765;50.954;5.322;2023-06-14T05:56:26;24.80;1.00
21216;DHT22;10765;50.954;5.322;2023-06-14T05:58:54;25.40;1.00
21216;DHT22;10765;50.954;5.322;2023-06-14T06:01:21;25.70;1.00
21216;DHT22;10765;50.954;5.322;2023-06-14T06:03:48;25.60;1.00
21216;DHT22;10765;50.954;5.322;2023-06-14T06:06:15;25.80;1.00
21216;DHT22;10765;50.954;5.322;2023-06-14T06:08:43;26.60;1.00
21216;DHT22;10765;50.954;5.322;2023-06-14T06:11:10;26.40;1.00
21216;DHT22;10765;50.954;5.322;2023-06-14T06:13:37;26.70;1.00
21216;DHT22;10765;50.954;5.322;2023-06-14T06:16:06;27.10;1.00
21216;DHT22;10765;50.954;5.322;2023-06-14T06:18:33;27.60;1.00
21216;DHT22;10765;50.954;5.322;2023-06-14T06:21:00;27.40;1.00
21216;DHT22;10765;50.954;5.322;2023-06-14T06:23:28;27.50;1.00
21216;DHT22;10765;50.954;5.322;2023-06-14T06:25:55;27.50;1.00
21216;DHT22;10765;50.954;5.322;2023-06-14T06:28:22;27.50;1.00
21216;DHT22;10765;50.954;5.322;2023-06-14T06:30:49;28.10;1.00
21216;DHT22;10765;50.954;5.322;2023-06-14T06:33:17;29.00;1.00
21216;DHT22;10765;50.954;5.322;2023-06-14T06:35:44;28.80;1.00
21216;DHT22;10765;50.954;5.322;2023-06-14T06:38:11;29.20;1.00
21216;DHT22;10765;50.954;5.322;2023-06-14T06:40:39;29.30;1.00
21216;DHT22;10765;50.954;5.322;2023-06-14T06:43:06;29.30;1.00
21216;DHT22;10765;50.954;5.322;2023-06-14T06:45:32;29.20;1.00
21216;DHT22;10765;50.954;5.322;2023-06-14T06:47:59;29.30;1.00
21216;DHT22;10765;50.954;5.322;2023-06-14T06:50:28;29.70;1.00
21216;DHT22;10765;50.954;5.322;2023-06-14T06:52:54;29.70;1.00
21216;DHT22;10765;50.954;5.322;2023-06-14T06:55:21;30.00;1.00
21216;DHT22;10765;50.954;5.322;2023-06-14T06:57:48;30.40;1.00
21216;DHT22;10765;50.954;5.322;2023-06-14T07:00:18;30.60;1.00
21216;DHT22;10765;50.954;5.322;2023-06-14T07:02:45;30.90;1.00
21216;DHT22;10765;50.954;5.322;2023-06-14T07:05:12;30.20;1.00
21216;DHT22;10765;50.954;5.322;2023-06-14T07:07:40;29.90;1.00
21216;DHT22;10765;50.954;5.322;2023-06-14T07:10:07;29.20;1.00
21216;DHT22;10765;50.954;5.322;2023-06-14T07:12:34;29.30;1.00
21216;DHT22;10765;50.954;5.322;2023-06-14T07:15:06;29.30;1.00
21216;DHT22;10765;50.954;5.322;2023-06-14T07:17:33;29.40;1.00
21216;DHT22;10765;50.954;5.322;2023-06-14T07:20:02;29.40;1.00
21216;DHT22;10765;50.954;5.322;2023-06-14T07:22:39;28.80;1.00
21216;DHT22;10765;50.954;5.322;2023-06-14T07:25:08;28.80;1.00
21216;DHT22;10765;50.954;5.322;2023-06-14T07:27:35;29.10;1.00
21216;DHT22;10765;50.954;5.322;2023-06-14T07:30:02;29.60;1.00
21216;DHT22;10765;50.954;5.322;2023-06-14T07:32:29;29.60;1.00
21216;DHT22;10765;50.954;5.322;2023-06-14T07:34:56;29.70;1.00
21216;DHT22;10765;50.954;5.322;2023-06-14T07:37:23;29.00;1.00
21216;DHT22;10765;50.954;5.322;2023-06-14T07:39:51;28.70;1.00
21216;DHT22;10765;50.954;5.322;2023-06-14T07:42:18;28.90;1.00
21216;DHT22;10765;50.954;5.322;2023-06-14T07:44:45;29.20;1.00
21216;DHT22;10765;50.954;5.322;2023-06-14T07:47:12;29.90;1.00
21216;DHT22;10765;50.954;5.322;2023-06-14T07:49:39;30.60;1.00
21216;DHT22;10765;50.954;5.322;2023-06-14T07:52:06;31.00;1.00
21216;DHT22;10765;50.954;5.322;2023-06-14T07:54:33;30.70;1.00
21216;DHT22;10765;50.954;5.322;2023-06-14T07:57:02;30.60;1.00
21216;DHT22;10765;50.954;5.322;2023-06-14T07:59:29;31.10;1.00
21216;DHT22;10765;50.954;5.322;2023-06-14T08:01:56;31.20;1.00
21216;DHT22;10765;50.954;5.322;2023-06-14T08:04:22;31.70;1.00
21216;DHT22;10765;50.954;5.322;2023-06-14T08:06:50;32.00;1.00
21216;DHT22;10765;50.954;5.322;2023-06-14T08:09:18;31.60;1.00
21216;DHT22;10765;50.954;5.322;2023-06-14T08:11:45;31.40;1.00
21216;DHT22;10765;50.954;5.322;2023-06-14T08:14:13;31.00;1.00
21216;DHT22;10765;50.954;5.322;2023-06-14T08:16:40;31.10;1.00
21216;DHT22;10765;50.954;5.322;2023-06-14T08:19:07;31.50;1.00
21216;DHT22;10765;50.954;5.322;2023-06-14T08:21:34;32.30;1.00
21216;DHT22;10765;50.954;5.322;2023-06-14T08:24:02;32.30;1.00
21216;DHT22;10765;50.954;5.322;2023-06-14T08:26:30;32.60;1.00
21216;DHT22;10765;50.954;5.322;2023-06-14T08:28:57;31.90;1.00
21216;DHT22;10765;50.954;5.322;2023-06-14T08:31:26;31.70;1.00
21216;DHT22;10765;50.954;5.322;2023-06-14T08:33:53;31.70;1.00
21216;DHT22;10765;50.954;5.322;2023-06-14T08:36:20;31.00;1.00
21216;DHT22;10765;50.954;5.322;2023-06-14T08:38:48;31.10;1.00
21216;DHT22;10765;50.954;5.322;2023-06-14T08:41:20;31.50;1.00
21216;DHT22;10765;50.954;5.322;2023-06-14T08:43:48;31.60;1.00
21216;DHT22;10765;50.954;5.322;2023-06-14T08:46:17;31.80;1.00
21216;DHT22;10765;50.954;5.322;2023-06-14T08:48:48;31.90;1.00
21216;DHT22;10765;50.954;5.322;2023-06-14T08:51:18;32.50;1.00
21216;DHT22;10765;50.954;5.322;2023-06-14T08:53:51;32.40;1.00
21216;DHT22;10765;50.954;5.322;2023-06-14T08:56:19;32.60;1.00
21216;DHT22;10765;50.954;5.322;2023-06-14T08:58:48;32.20;1.00
21216;DHT22;10765;50.954;5.322;2023-06-14T09:01:15;31.30;1.00
21216;DHT22;10765;50.954;5.322;2023-06-14T09:03:43;31.30;1.00
21216;DHT22;10765;50.954;5.322;2023-06-14T09:06:11;31.60;1.00
21216;DHT22;10765;50.954;5.322;2023-06-14T09:08:42;31.70;1.00
21216;DHT22;10765;50.954;5.322;2023-06-14T09:11:10;31.70;1.00
21216;DHT22;10765;50.954;5.322;2023-06-14T09:13:37;32.50;1.00
21216;DHT22;10765;50.954;5.322;2023-06-14T09:16:05;32.10;1.00
21216;DHT22;10765;50.954;5.322;2023-06-14T09:18:35;31.80;1.00
21216;DHT22;10765;50.954;5.322;2023-06-14T09:21:03;31.90;1.00
21216;DHT22;10765;50.954;5.322;2023-06-14T09:23:33;32.50;1.00
21216;DHT22;10765;50.954;5.322;2023-06-14T09:26:07;32.30;1.00
21216;DHT22;10765;50.954;5.322;2023-06-14T09:28:34;32.90;1.00
21216;DHT22;10765;50.954;5.322;2023-06-14T09:31:01;32.80;1.00
21216;DHT22;10765;50.954;5.322;2023-06-14T09:33:28;33.10;1.00
21216;DHT22;10765;50.954;5.322;2023-06-14T09:35:55;32.20;1.00
21216;DHT22;10765;50.954;5.322;2023-06-14T09:38:22;33.00;1.00
21216;DHT22;10765;50.954;5.322;2023-06-14T09:40:51;33.10;1.00
21216;DHT22;10765;50.954;5.322;2023-06-14T09:43:19;32.80;1.00
21216;DHT22;10765;50.954;5.322;2023-06-14T09:45:48;33.80;1.00
21216;DHT22;10765;50.954;5.322;2023-06-14T09:48:15;34.40;1.00
21216;DHT22;10765;50.954;5.322;2023-06-14T09:50:45;34.30;1.00
21216;DHT22;10765;50.954;5.322;2023-06-14T09:53:13;33.80;1.00
21216;DHT22;10765;50.954;5.322;2023-06-14T09:55:41;34.10;1.00
21216;DHT22;10765;50.954;5.322;2023-06-14T09:58:10;33.60;1.00
21216;DHT22;10765;50.954;5.322;2023-06-14T10:00:39;34.80;1.00
21216;DHT22;10765;50.954;5.322;2023-06-14T10:03:12;34.30;1.00
21216;DHT22;10765;50.954;5.322;2023-06-14T10:05:43;34.10;1.00
21216;DHT22;10765;50.954;5.322;2023-06-14T10:08:13;35.10;1.00
21216;DHT22;10765;50.954;5.322;2023-06-14T10:10:41;36.00;1.00
21216;DHT22;10765;50.954;5.322;2023-06-14T10:13:10;35.60;1.00
21216;DHT22;10765;50.954;5.322;2023-06-14T10:15:42;36.40;99.90
21216;DHT22;10765;50.954;5.322;2023-06-14T10:18:19;36.40;99.90
21216;DHT22;10765;50.954;5.322;2023-06-14T10:20:55;37.70;99.90
21216;DHT22;10765;50.954;5.322;2023-06-14T10:23:25;37.30;99.90
21216;DHT22;10765;50.954;5.322;2023-06-14T10:25:56;35.80;99.90
21216;DHT22;10765;50.954;5.322;2023-06-14T10:28:24;36.50;99.90
21216;DHT22;10765;50.954;5.322;2023-06-14T10:31:08;36.60;99.90
21216;DHT22;10765;50.954;5.322;2023-06-14T10:33:36;36.00;99.90
21216;DHT22;10765;50.954;5.322;2023-06-14T10:36:26;36.20;99.90
21216;DHT22;10765;50.954;5.322;2023-06-14T10:39:01;34.70;1.00
21216;DHT22;10765;50.954;5.322;2023-06-14T10:41:32;35.10;1.00
21216;DHT22;10765;50.954;5.322;2023-06-14T10:44:39;36.90;1.00
21216;DHT22;10765;50.954;5.322;2023-06-14T10:47:10;37.40;99.90
21216;DHT22;10765;50.954;5.322;2023-06-14T10:49:42;36.70;99.90
21216;DHT22;10765;50.954;5.322;2023-06-14T10:52:11;36.10;1.00
21216;DHT22;10765;50.954;5.322;2023-06-14T10:55:01;35.70;1.00
21216;DHT22;10765;50.954;5.322;2023-06-14T10:57:29;37.10;99.90
21216;DHT22;10765;50.954;5.322;2023-06-14T10:59:59;37.00;99.90
21216;DHT22;10765;50.954;5.322;2023-06-14T11:02:51;35.30;1.00
21216;DHT22;10765;50.954;5.322;2023-06-14T11:05:24;36.10;1.00
21216;DHT22;10765;50.954;5.322;2023-06-14T11:08:04;38.20;99.90
21216;DHT22;10765;50.954;5.322;2023-06-14T11:10:41;38.60;99.90
21216;DHT22;10765;50.954;5.322;2023-06-14T11:13:08;37.60;99.90
21216;DHT22;10765;50.954;5.322;2023-06-14T11:15:37;38.10;99.90
21216;DHT22;10765;50.954;5.322;2023-06-14T11:18:06;39.00;99.90
21216;DHT22;10765;50.954;5.322;2023-06-14T11:20:36;38.20;99.90
21216;DHT22;10765;50.954;5.322;2023-06-14T11:23:04;38.50;99.90
21216;DHT22;10765;50.954;5.322;2023-06-14T11:25:31;37.90;99.90
21216;DHT22;10765;50.954;5.322;2023-06-14T11:27:58;38.80;99.90
21216;DHT22;10765;50.954;5.322;2023-06-14T11:30:25;39.70;99.90
21216;DHT22;10765;50.954;5.322;2023-06-14T11:32:55;40.80;99.90
21216;DHT22;10765;50.954;5.322;2023-06-14T11:35:22;38.70;99.90
21216;DHT22;10765;50.954;5.322;2023-06-14T11:37:52;39.30;99.90
21216;DHT22;10765;50.954;5.322;2023-06-14T11:40:25;39.40;99.90
21216;DHT22;10765;50.954;5.322;2023-06-14T11:42:58;39.20;99.90
21216;DHT22;10765;50.954;5.322;2023-06-14T11:45:25;38.20;1.00
21216;DHT22;10765;50.954;5.322;2023-06-14T11:47:54;38.30;1.00
21216;DHT22;10765;50.954;5.322;2023-06-14T11:50:23;38.40;1.00
21216;DHT22;10765;50.954;5.322;2023-06-14T11:52:52;38.60;1.00
21216;DHT22;10765;50.954;5.322;2023-06-14T11:55:19;37.70;1.00
21216;DHT22;10765;50.954;5.322;2023-06-14T11:57:47;38.70;1.00
21216;DHT22;10765;50.954;5.322;2023-06-14T12:00:15;39.10;1.00
21216;DHT22;10765;50.954;5.322;2023-06-14T12:02:51;39.30;1.00
21216;DHT22;10765;50.954;5.322;2023-06-14T12:05:20;39.90;99.90
21216;DHT22;10765;50.954;5.322;2023-06-14T12:07:47;41.40;99.90
21216;DHT22;10765;50.954;5.322;2023-06-14T12:10:16;41.20;99.90
21216;DHT22;10765;50.954;5.322;2023-06-14T12:12:43;41.60;99.90
21216;DHT22;10765;50.954;5.322;2023-06-14T12:15:10;40.00;1.00
21216;DHT22;10765;50.954;5.322;2023-06-14T12:17:39;40.00;99.90
21216;DHT22;10765;50.954;5.322;2023-06-14T12:20:09;40.20;99.90
21216;DHT22;10765;50.954;5.322;2023-06-14T12:22:47;39.10;1.00
21216;DHT22;10765;50.954;5.322;2023-06-14T12:25:28;38.40;1.00
21216;DHT22;10765;50.954;5.322;2023-06-14T12:27:56;39.70;1.00
21216;DHT22;10765;50.954;5.322;2023-06-14T12:30:23;39.20;1.00
21216;DHT22;10765;50.954;5.322;2023-06-14T12:32:50;39.90;1.00
21216;DHT22;10765;50.954;5.322;2023-06-14T12:35:18;40.20;1.00
21216;DHT22;10765;50.954;5.322;2023-06-14T12:37:46;39.60;1.00
21216;DHT22;10765;50.954;5.322;2023-06-14T12:40:14;41.00;1.00
21216;DHT22;10765;50.954;5.322;2023-06-14T12:42:42;39.60;1.00
21216;DHT22;10765;50.954;5.322;2023-06-14T12:45:10;39.00;1.00
21216;DHT22;10765;50.954;5.322;2023-06-14T12:47:37;37.10;1.00
21216;DHT22;10765;50.954;5.322;2023-06-14T12:50:05;36.90;1.00
21216;DHT22;10765;50.954;5.322;2023-06-14T12:52:33;38.10;1.00
21216;DHT22;10765;50.954;5.322;2023-06-14T12:55:03;38.10;1.00
21216;DHT22;10765;50.954;5.322;2023-06-14T12:57:30;38.30;1.00
21216;DHT22;10765;50.954;5.322;2023-06-14T12:59:59;40.10;1.00
21216;DHT22;10765;50.954;5.322;2023-06-14T13:02:26;40.80;1.00
21216;DHT22;10765;50.954;5.322;2023-06-14T13:04:53;38.70;1.00
21216;DHT22;10765;50.954;5.322;2023-06-14T13:07:20;38.70;1.00
21216;DHT22;10765;50.954;5.322;2023-06-14T13:09:47;38.10;1.00
21216;DHT22;10765;50.954;5.322;2023-06-14T13:12:15;36.90;1.00
21216;DHT22;10765;50.954;5.322;2023-06-14T13:14:42;37.80;1.00
21216;DHT22;10765;50.954;5.322;2023-06-14T13:17:10;37.70;1.00
21216;DHT22;10765;50.954;5.322;2023-06-14T13:19:37;38.80;1.00
21216;DHT22;10765;50.954;5.322;2023-06-14T13:22:04;39.30;1.00
21216;DHT22;10765;50.954;5.322;2023-06-14T13:24:31;38.00;1.00
21216;DHT22;10765;50.954;5.322;2023-06-14T13:26:58;37.80;1.00
21216;DHT22;10765;50.954;5.322;2023-06-14T13:29:26;38.50;1.00
21216;DHT22;10765;50.954;5.322;2023-06-14T13:31:54;39.70;1.00
21216;DHT22;10765;50.954;5.322;2023-06-14T13:34:21;36.90;1.00
21216;DHT22;10765;50.954;5.322;2023-06-14T13:36:49;33.30;1.00
21216;DHT22;10765;50.954;5.322;2023-06-14T13:39:16;30.90;1.00
21216;DHT22;10765;50.954;5.322;2023-06-14T13:41:43;29.40;1.00
21216;DHT22;10765;50.954;5.322;2023-06-14T13:44:10;28.70;1.00
21216;DHT22;10765;50.954;5.322;2023-06-14T13:46:41;28.50;1.00
21216;DHT22;10765;50.954;5.322;2023-06-14T13:49:08;28.50;1.00
21216;DHT22;10765;50.954;5.322;2023-06-14T13:51:36;29.00;1.00
21216;DHT22;10765;50.954;5.322;2023-06-14T13:54:03;29.20;1.00
21216;DHT22;10765;50.954;5.322;2023-06-14T13:56:30;29.10;1.00
21216;DHT22;10765;50.954;5.322;2023-06-14T13:58:56;28.90;1.00
21216;DHT22;10765;50.954;5.322;2023-06-14T14:01:23;28.40;1.00
21216;DHT22;10765;50.954;5.322;2023-06-14T14:03:52;28.10;1.00
21216;DHT22;10765;50.954;5.322;2023-06-14T14:06:19;28.30;1.00
21216;DHT22;10765;50.954;5.322;2023-06-14T14:08:46;28.00;1.00
21216;DHT22;10765;50.954;5.322;2023-06-14T14:11:13;28.10;1.00
21216;DHT22;10765;50.954;5.322;2023-06-14T14:13:41;27.80;1.00
21216;DHT22;10765;50.954;5.322;2023-06-14T14:16:08;27.50;5.50
21216;DHT22;10765;50.954;5.322;2023-06-14T14:18:36;27.60;6.50
21216;DHT22;10765;50.954;5.322;2023-06-14T14:21:05;27.90;1.00
21216;DHT22;10765;50.954;5.322;2023-06-14T14:23:32;28.20;1.00
21216;DHT22;10765;50.954;5.322;2023-06-14T14:25:58;27.90;1.00
21216;DHT22;10765;50.954;5.322;2023-06-14T14:28:26;27.50;8.10
21216;DHT22;10765;50.954;5.322;2023-06-14T14:30:53;27.40;9.80
21216;DHT22;10765;50.954;5.322;2023-06-14T14:33:20;27.60;8.10
21216;DHT22;10765;50.954;5.322;2023-06-14T14:35:47;27.50;9.20
21216;DHT22;10765;50.954;5.322;2023-06-14T14:38:16;27.00;24.70
21216;DHT22;10765;50.954;5.322;2023-06-14T14:40:43;26.90;29.20
21216;DHT22;10765;50.954;5.322;2023-06-14T14:43:10;27.10;22.10
21216;DHT22;10765;50.954;5.322;2023-06-14T14:45:37;27.20;24.40
21216;DHT22;10765;50.954;5.322;2023-06-14T14:48:05;27.40;18.30
21216;DHT22;10765;50.954;5.322;2023-06-14T14:50:32;27.60;10.40
21216;DHT22;10765;50.954;5.322;2023-06-14T14:52:59;27.30;18.10
21216;DHT22;10765;50.954;5.322;2023-06-14T14:55:27;27.70;8.70
21216;DHT22;10765;50.954;5.322;2023-06-14T14:57:54;27.60;7.60
21216;DHT22;10765;50.954;5.322;2023-06-14T15:00:21;27.80;4.30
21216;DHT22;10765;50.954;5.322;2023-06-14T15:02:48;27.40;10.90
21216;DHT22;10765;50.954;5.322;2023-06-14T15:05:15;27.10;21.90
21216;DHT22;10765;50.954;5.322;2023-06-14T15:07:42;27.10;21.00
21216;DHT22;10765;50.954;5.322;2023-06-14T15:10:10;27.30;17.10
21216;DHT22;10765;50.954;5.322;2023-06-14T15:12:38;27.40;14.40
21216;DHT22;10765;50.954;5.322;2023-06-14T15:15:06;27.30;17.90
21216;DHT22;10765;50.954;5.322;2023-06-14T15:17:34;27.00;26.00
21216;DHT22;10765;50.954;5.322;2023-06-14T15:20:02;26.90;25.60
21216;DHT22;10765;50.954;5.322;2023-06-14T15:22:30;26.60;36.80
21216;DHT22;10765;50.954;5.322;2023-06-14T15:24:56;26.50;42.80
21216;DHT22;10765;50.954;5.322;2023-06-14T15:27:23;26.60;41.20
21216;DHT22;10765;50.954;5.322;2023-06-14T15:29:52;26.80;31.80
21216;DHT22;10765;50.954;5.322;2023-06-14T15:32:19;26.50;43.40
21216;DHT22;10765;50.954;5.322;2023-06-14T15:34:46;26.50;46.70
21216;DHT22;10765;50.954;5.322;2023-06-14T15:37:13;26.50;47.40
21216;DHT22;10765;50.954;5.322;2023-06-14T15:39:40;26.60;41.30
21216;DHT22;10765;50.954;5.322;2023-06-14T15:42:07;26.60;44.00
21216;DHT22;10765;50.954;5.322;2023-06-14T15:44:35;26.50;48.60
21216;DHT22;10765;50.954;5.322;2023-06-14T15:47:04;26.30;53.90